Pena Blanca, New Mexico
Current Conditions -  °F | °C
As of 4:53 AM on Sunday 23 Nov 2014 (Local Time) from KSAF Reporting Station
Clear Clear  
Wind Chill: 35°   Ceiling: Unl
Heat Index: 35°   Visibility: 10mi
Dew Point: 17°   Wind: 0mph
Humidity: 48%   Direction: NA
Pressure: 29.74"   Gusts: NA
Location:  35.57°N, 106.34°W
Report Text: KSAF 231153Z AUTO 00000KT 10SM CLR 02/M08 A2974 RMK AO2 SLP036 T00171083 10050 21006 58008
Loading
Personal Weather Stations






























Interactive Weather Map New forecast layout! Learn more

10-Day Weather Forecast

Advertisements
Track Severe Weather on mobile